Au Sable, Michigan
Current Conditions -  °F | °C
As of 10:13 AM on Monday 24 Nov 2014 (Local Time) from KOSC Reporting Station
Heavy Rain Heavy Rain  
Wind Chill: 46°   Ceiling: 600
Heat Index: 50°   Visibility: 1.5mi
Dew Point: 49°   Wind: 9mph
Humidity: 99%   Direction: 210°SSW
Pressure: 29.01"   Gusts: NA
Location:  44.4539°N, 83.4813°W
Report Text: KOSC 241513Z AUTO 21008KT 1 1/2SM +RA OVC006 10/09 A2901 RMK AO2 T00980096
Loading
Personal Weather Stations






























Interactive Weather Map New forecast layout! Learn more

10-Day Weather Forecast

Advertisements
Track Severe Weather on mobile